Time;durP1;ratioP1;P1;durP2;ratioP2;P2;SDS_P1;SDS_P2;PMS_P1;PMS_P2;Temp;Humidity;BMP_temperature;BMP_pressure;BME280_temperature;BME280_humidity;BME280_pressure;Samples;Min_cycle;Max_cycle;Signal;HPM_P1;HPM_P2
2023/01/02 00:01:09;;;;;;;;;;;;;;;28.65;24.66;102158.75;5089682;28;1150;-16
2023/01/02 00:03:34;;;;;;;;;;;;;;;28.86;24.01;102162.94;5092136;28;1082;-15
2023/01/02 00:06:03;;;;;;;;;;;;;;;28.63;24.41;102166.16;5078052;28;1970;-15
2023/01/02 00:08:28;;;;;;;;;;;;;;;28.38;25.08;102171.41;5082470;28;1028;-15
2023/01/02 00:10:53;;;;;;;;;;;;;;;29.23;24.06;102169.06;5098312;28;1097;-15
2023/01/02 00:13:19;;;;;;;;;;;;;;;28.95;24.25;102163.81;5084356;28;1148;-15
2023/01/02 00:15:44;;;;;;;;;;;;;;;29.11;23.96;102160.41;5085458;28;998;-15
2023/01/02 00:18:09;;;;;;;;;;;;;;;28.53;24.64;102151.91;5078301;28;1052;-15
2023/01/02 00:20:35;;;;;;;;;;;;;;;28.03;25.59;102151.50;5082878;28;1062;-15
2023/01/02 00:23:00;;;;;;;;;;;;;;;27.98;25.95;102141.97;5090967;28;1121;-15
2023/01/02 00:25:25;;;;;;;;;;;;;;;28.19;25.78;102146.22;5077934;28;1902;-15
2023/01/02 00:27:51;;;;;;;;;;;;;;;28.73;24.52;102153.38;5077834;28;1039;-15
2023/01/02 00:30:16;;;;;;;;;;;;;;;29.12;24.12;102143.09;5089481;28;1110;-15
2023/01/02 00:32:41;;;;;;;;;;;;;;;28.05;25.88;102144.03;5084605;28;1069;-15
2023/01/02 00:35:07;;;;;;;;;;;;;;;27.81;26.53;102148.22;5085975;28;1045;-15
2023/01/02 00:37:32;;;;;;;;;;;;;;;27.74;26.35;102142.59;5095760;28;1092;-15
2023/01/02 00:39:57;;;;;;;;;;;;;;;28.52;25.40;102147.47;5097328;28;1089;-15
2023/01/02 00:42:23;;;;;;;;;;;;;;;29.11;24.43;102144.13;5092780;28;1160;-15
2023/01/02 00:44:48;;;;;;;;;;;;;;;27.98;25.92;102136.56;5088925;28;1967;-15
2023/01/02 00:47:13;;;;;;;;;;;;;;;27.99;26.04;102135.53;5097399;28;1141;-15
2023/01/02 00:49:38;;;;;;;;;;;;;;;28.06;26.14;102140.34;5097067;28;1035;-15
2023/01/02 00:52:04;;;;;;;;;;;;;;;28.78;24.81;102131.22;5097943;28;1110;-15
2023/01/02 00:54:29;;;;;;;;;;;;;;;29.19;24.33;102129.75;5097469;28;1046;-15
2023/01/02 00:56:54;;;;;;;;;;;;;;;28.04;25.86;102131.53;5092412;28;1046;-15
2023/01/02 00:59:20;;;;;;;;;;;;;;;27.74;26.32;102135.31;5088541;28;1209;-15
2023/01/02 01:01:45;;;;;;;;;;;;;;;27.83;26.56;102124.56;5092129;28;1152;-15
2023/01/02 01:04:10;;;;;;;;;;;;;;;28.17;26.05;102137.41;5077191;28;1901;-15
2023/01/02 01:06:35;;;;;;;;;;;;;;;28.87;24.64;102124.00;5081344;28;1078;-15
2023/01/02 01:09:01;;;;;;;;;;;;;;;29.25;24.08;102123.69;5097472;28;1050;-15
2023/01/02 01:11:26;;;;;;;;;;;;;;;28.14;26.08;102115.22;5083503;28;1146;-14
2023/01/02 01:13:51;;;;;;;;;;;;;;;28.23;25.95;102108.84;5096594;28;1212;-14
2023/01/02 01:16:17;;;;;;;;;;;;;;;28.67;25.04;102115.25;5096538;28;1046;-15
2023/01/02 01:18:42;;;;;;;;;;;;;;;29.09;24.47;102109.03;5086098;28;1145;-15
2023/01/02 01:21:08;;;;;;;;;;;;;;;28.41;25.48;102118.84;5093524;28;1078;-15
2023/01/02 01:23:33;;;;;;;;;;;;;;;27.85;26.28;102114.47;5086816;28;1101;-16
2023/01/02 01:26:02;;;;;;;;;;;;;;;27.77;26.51;102103.56;5079695;28;1914;-15
2023/01/02 01:28:27;;;;;;;;;;;;;;;28.03;26.41;102106.34;5068827;28;1177;-15
2023/01/02 01:30:52;;;;;;;;;;;;;;;28.75;24.91;102106.31;5089563;28;1018;-15
2023/01/02 01:33:17;;;;;;;;;;;;;;;29.10;24.59;102101.78;5076744;28;1029;-15
2023/01/02 01:35:43;;;;;;;;;;;;;;;28.07;25.87;102109.59;5090134;28;1031;-15
2023/01/02 01:38:08;;;;;;;;;;;;;;;27.90;26.70;102103.16;5086298;28;1181;-15
2023/01/02 01:40:37;;;;;;;;;;;;;;;28.28;25.91;102101.09;5083225;28;1033;-15
2023/01/02 01:43:02;;;;;;;;;;;;;;;28.72;23.94;102107.50;5096855;28;1030;-15
2023/01/02 01:45:28;;;;;;;;;;;;;;;29.20;23.77;102101.63;5079295;28;1961;-15
2023/01/02 01:47:54;;;;;;;;;;;;;;;28.59;25.21;102097.94;5086567;28;1139;-15
2023/01/02 01:50:32;;;;;;;;;;;;;;;28.24;25.92;102083.50;5061156;28;1027;-15
2023/01/02 01:53:05;;;;;;;;;;;;;;;28.44;25.35;102095.00;5084900;28;1217;-15
2023/01/02 01:55:31;;;;;;;;;;;;;;;28.90;24.75;102088.47;5077643;28;1120;-15
2023/01/02 01:58:01;;;;;;;;;;;;;;;29.43;23.95;102090.16;5084034;28;1065;-15
2023/01/02 02:00:27;;;;;;;;;;;;;;;28.52;25.18;102087.94;5078194;28;1111;-15
2023/01/02 02:02:54;;;;;;;;;;;;;;;28.03;26.24;102087.41;5078047;28;1000;-15
2023/01/02 02:05:21;;;;;;;;;;;;;;;27.89;26.22;102091.53;5083544;28;1970;-15
2023/01/02 02:07:48;;;;;;;;;;;;;;;28.03;26.32;102083.88;5096377;28;1045;-15
2023/01/02 02:10:13;;;;;;;;;;;;;;;28.85;24.90;102083.53;5078268;28;1034;-15
2023/01/02 02:12:38;;;;;;;;;;;;;;;29.32;23.81;102066.94;5095680;28;1075;-15
2023/01/02 02:15:05;;;;;;;;;;;;;;;28.46;25.39;102073.19;5088921;28;855;-15
2023/01/02 02:17:49;;;;;;;;;;;;;;;28.42;25.66;102072.66;5077231;28;1070;-15
2023/01/02 02:20:27;;;;;;;;;;;;;;;28.24;25.87;102070.81;5096076;28;1090;-15
2023/01/02 02:23:01;;;;;;;;;;;;;;;28.26;25.87;102065.25;5075521;28;1283;-15
2023/01/02 02:25:47;;;;;;;;;;;;;;;29.14;24.38;102069.78;5097331;28;1973;-15
2023/01/02 02:28:27;;;;;;;;;;;;;;;29.40;23.95;102063.41;5099761;28;1372;-15
2023/01/02 02:30:53;;;;;;;;;;;;;;;28.28;25.47;102067.81;5099958;28;1106;-15
2023/01/02 02:33:18;;;;;;;;;;;;;;;28.14;26.00;102066.53;5099830;28;1070;-15
2023/01/02 02:35:49;;;;;;;;;;;;;;;28.71;24.93;102067.91;5096410;28;1030;-15
2023/01/02 02:38:14;;;;;;;;;;;;;;;29.25;23.95;102069.47;5090124;28;1127;-15
2023/01/02 02:41:03;;;;;;;;;;;;;;;28.45;25.35;102064.22;5086779;28;1119;-15
2023/01/02 02:43:31;;;;;;;;;;;;;;;27.97;25.99;102061.00;5098166;28;1059;-14
2023/01/02 02:45:59;;;;;;;;;;;;;;;27.98;26.14;102062.69;5079920;28;1905;-15
2023/01/02 02:48:26;;;;;;;;;;;;;;;28.75;24.93;102066.56;5093325;28;1099;-15
2023/01/02 02:51:02;;;;;;;;;;;;;;;29.32;23.98;102061.53;5087564;28;873;-15
2023/01/02 02:53:31;;;;;;;;;;;;;;;28.54;25.33;102066.97;5082129;28;1229;-15
2023/01/02 02:55:57;;;;;;;;;;;;;;;28.41;25.35;102068.25;5088678;28;1074;-14
2023/01/02 02:58:23;;;;;;;;;;;;;;;28.24;25.67;102073.50;5084772;28;1273;-15
2023/01/02 03:00:48;;;;;;;;;;;;;;;28.62;25.17;102069.72;5089244;28;1115;-15
2023/01/02 03:03:20;;;;;;;;;;;;;;;29.22;24.33;102072.53;5082048;28;1035;-15
2023/01/02 03:05:54;;;;;;;;;;;;;;;29.36;23.94;102068.34;5099510;28;1909;-15
2023/01/02 03:08:24;;;;;;;;;;;;;;;28.22;25.60;102077.41;5079762;28;1075;-14
2023/01/02 03:10:56;;;;;;;;;;;;;;;27.85;26.22;102077.47;5079166;28;1176;-15
2023/01/02 03:13:40;;;;;;;;;;;;;;;28.02;26.30;102079.44;5097314;28;1012;-15
2023/01/02 03:16:08;;;;;;;;;;;;;;;28.65;24.96;102079.38;5083541;28;986;-15
2023/01/02 03:18:34;;;;;;;;;;;;;;;29.27;24.04;102080.16;5078924;28;1035;-15
2023/01/02 03:21:13;;;;;;;;;;;;;;;28.38;25.66;102086.69;5094740;28;1123;-15
2023/01/02 03:23:45;;;;;;;;;;;;;;;28.16;26.02;102086.16;5097966;28;1111;-15
2023/01/02 03:26:11;;;;;;;;;;;;;;;28.09;25.96;102078.66;5093968;28;1910;-15
2023/01/02 03:28:37;;;;;;;;;;;;;;;28.72;24.92;102089.41;5089030;28;1003;-15
2023/01/02 03:31:02;;;;;;;;;;;;;;;29.24;24.03;102080.47;5079977;28;1113;-15
2023/01/02 03:33:29;;;;;;;;;;;;;;;28.89;24.61;102100.31;5079052;28;1043;-15
2023/01/02 03:36:05;;;;;;;;;;;;;;;27.81;26.39;102091.47;5094329;28;1031;-15
2023/01/02 03:38:35;;;;;;;;;;;;;;;27.92;26.15;102084.94;5085152;28;1023;-15
2023/01/02 03:41:16;;;;;;;;;;;;;;;28.17;25.91;102090.53;5078821;28;1023;-15
2023/01/02 03:43:42;;;;;;;;;;;;;;;28.15;25.92;102081.72;5092523;28;1102;-15
2023/01/02 03:46:09;;;;;;;;;;;;;;;28.91;24.58;102076.59;5089425;28;1989;-15
2023/01/02 03:48:42;;;;;;;;;;;;;;;29.40;23.90;102075.09;5092601;28;1154;-15
2023/01/02 03:51:07;;;;;;;;;;;;;;;28.38;25.52;102073.97;5086332;28;929;-15
2023/01/02 03:53:33;;;;;;;;;;;;;;;28.24;25.70;102075.41;5097672;28;1038;-15
2023/01/02 03:56:17;;;;;;;;;;;;;;;28.88;24.67;102087.78;5089255;28;1181;-15
2023/01/02 03:58:48;;;;;;;;;;;;;;;29.16;24.20;102084.84;5096931;28;1154;-15
2023/01/02 04:01:26;;;;;;;;;;;;;;;28.54;25.23;102086.78;5098739;28;1046;-15
2023/01/02 04:03:55;;;;;;;;;;;;;;;27.67;26.39;102087.41;5091628;28;943;-15
2023/01/02 04:06:23;;;;;;;;;;;;;;;27.86;26.32;102087.25;5097033;28;1051;-15
2023/01/02 04:08:49;;;;;;;;;;;;;;;28.20;26.07;102087.53;5098420;28;1085;-15
2023/01/02 04:11:15;;;;;;;;;;;;;;;28.07;26.14;102083.38;5096933;28;1035;-15
2023/01/02 04:13:41;;;;;;;;;;;;;;;29.06;24.33;102090.41;5096761;28;1102;-15
2023/01/02 04:16:07;;;;;;;;;;;;;;;29.28;24.36;102092.72;5097725;28;885;-14
2023/01/02 04:18:34;;;;;;;;;;;;;;;28.41;25.64;102098.00;5089062;28;1222;-14
2023/01/02 04:21:00;;;;;;;;;;;;;;;28.59;25.50;102094.41;5090600;28;1174;-15
2023/01/02 04:23:30;;;;;;;;;;;;;;;28.99;25.08;102096.66;5069155;28;1278;-14
2023/01/02 04:26:18;;;;;;;;;;;;;;;29.36;24.17;102094.56;5097169;28;1959;-14
2023/01/02 04:28:44;;;;;;;;;;;;;;;29.20;24.59;102096.22;5079161;28;1192;-14
2023/01/02 04:31:12;;;;;;;;;;;;;;;27.43;22.45;102096.94;5083736;28;1063;-14
2023/01/02 04:33:39;;;;;;;;;;;;;;;26.90;24.23;102102.88;5084169;28;991;-14
2023/01/02 04:36:11;;;;;;;;;;;;;;;28.37;22.82;102091.22;5081980;28;1130;-14
2023/01/02 04:38:36;;;;;;;;;;;;;;;28.53;22.72;102097.78;5097466;28;1042;-14
2023/01/02 04:41:02;;;;;;;;;;;;;;;29.15;22.23;102099.44;5077569;28;1069;-14
2023/01/02 04:43:27;;;;;;;;;;;;;;;28.38;23.23;102101.03;5090300;28;1123;-14
2023/01/02 04:45:53;;;;;;;;;;;;;;;28.05;23.42;102095.34;5077994;28;1902;-14
2023/01/02 04:48:18;;;;;;;;;;;;;;;28.30;23.47;102095.53;5088148;28;1194;-14
2023/01/02 04:50:43;;;;;;;;;;;;;;;27.74;21.80;102092.06;5077391;28;1186;-14
2023/01/02 04:53:09;;;;;;;;;;;;;;;26.67;22.52;102089.78;5088327;28;1031;-14
2023/01/02 04:55:35;;;;;;;;;;;;;;;26.22;24.17;102094.81;5096967;28;1095;-14
2023/01/02 04:58:00;;;;;;;;;;;;;;;26.36;24.22;102093.53;5084565;28;990;-14
2023/01/02 05:00:26;;;;;;;;;;;;;;;26.55;23.76;102090.94;5090419;28;1085;-13
2023/01/02 05:02:51;;;;;;;;;;;;;;;25.51;22.72;102086.81;5088113;28;1186;-13
2023/01/02 05:05:16;;;;;;;;;;;;;;;25.34;22.37;102088.34;5095535;28;1893;-13
2023/01/02 05:07:42;;;;;;;;;;;;;;;24.91;22.44;102093.88;5096084;28;1131;-13
2023/01/02 05:10:07;;;;;;;;;;;;;;;24.84;22.21;102095.38;5096151;28;1114;-13
2023/01/02 05:12:33;;;;;;;;;;;;;;;24.96;21.99;102092.63;5095679;28;1035;-13
2023/01/02 05:14:59;;;;;;;;;;;;;;;24.93;21.81;102105.38;5095848;28;1214;-13
2023/01/02 05:17:24;;;;;;;;;;;;;;;24.62;21.69;102104.47;5095033;28;1088;-13
2023/01/02 05:19:49;;;;;;;;;;;;;;;24.66;22.09;102103.22;5097238;28;1124;-13
2023/01/02 05:24:58;;;;;;;;;;;;;;;24.55;21.87;102101.47;5096461;28;1901;-13
2023/01/02 05:27:25;;;;;;;;;;;;;;;24.03;22.36;102092.31;5096003;28;1074;-13
2023/01/02 05:29:50;;;;;;;;;;;;;;;24.07;22.42;102099.13;5096659;28;1053;-14
2023/01/02 05:32:15;;;;;;;;;;;;;;;24.16;22.40;102102.91;5097111;28;1253;-14
2023/01/02 05:34:41;;;;;;;;;;;;;;;23.63;22.78;102104.53;5096461;28;1554;-14
2023/01/02 05:37:06;;;;;;;;;;;;;;;23.46;23.13;102105.91;5096333;28;1218;-14
2023/01/02 05:39:31;;;;;;;;;;;;;;;24.07;23.06;102114.41;5096255;28;1149;-14
2023/01/02 05:41:57;;;;;;;;;;;;;;;24.12;23.12;102111.34;5095997;28;1093;-14
2023/01/02 05:44:22;;;;;;;;;;;;;;;23.66;22.72;102111.47;5096189;28;1913;-14
2023/01/02 05:46:47;;;;;;;;;;;;;;;23.45;22.42;102109.59;5096817;28;1043;-14
2023/01/02 05:49:12;;;;;;;;;;;;;;;25.57;21.08;102109.69;5095505;28;1102;-13
2023/01/02 05:51:38;;;;;;;;;;;;;;;26.67;20.48;102113.19;5095898;28;1254;-13
2023/01/02 05:54:03;;;;;;;;;;;;;;;27.00;20.80;102124.44;5096049;28;1073;-13
2023/01/02 05:56:29;;;;;;;;;;;;;;;27.60;20.46;102117.75;5095150;28;1145;-13
2023/01/02 05:58:54;;;;;;;;;;;;;;;27.90;20.40;102122.09;5077093;28;1109;-13
2023/01/02 06:01:20;;;;;;;;;;;;;;;27.65;20.85;102120.00;5074513;28;1095;-13
2023/01/02 06:03:46;;;;;;;;;;;;;;;28.19;20.34;102123.72;5088894;28;1121;-13
2023/01/02 06:06:11;;;;;;;;;;;;;;;28.29;20.09;102127.19;5087627;28;1971;-14
2023/01/02 06:08:36;;;;;;;;;;;;;;;28.39;20.37;102132.53;5096006;28;1117;-13
2023/01/02 06:11:02;;;;;;;;;;;;;;;27.31;21.98;102134.16;5095713;28;1263;-14
2023/01/02 06:13:28;;;;;;;;;;;;;;;26.63;22.82;102128.84;5078530;28;1014;-13
2023/01/02 06:15:54;;;;;;;;;;;;;;;28.23;21.07;102144.88;5087122;28;1109;-14
2023/01/02 06:18:19;;;;;;;;;;;;;;;28.62;20.85;102139.25;5091589;28;1070;-14
2023/01/02 06:20:44;;;;;;;;;;;;;;;28.86;20.76;102146.69;5086649;28;1190;-14
2023/01/02 06:23:09;;;;;;;;;;;;;;;28.81;20.79;102147.16;5075826;28;1237;-14
2023/01/02 06:25:35;;;;;;;;;;;;;;;28.78;20.93;102141.22;5089226;28;1961;-14
2023/01/02 06:28:00;;;;;;;;;;;;;;;27.75;22.00;102138.88;5089021;28;1091;-14
2023/01/02 06:30:25;;;;;;;;;;;;;;;26.93;23.20;102137.69;5089495;28;1134;-14
2023/01/02 06:32:51;;;;;;;;;;;;;;;28.33;21.55;102128.59;5082475;28;972;-14
2023/01/02 06:35:16;;;;;;;;;;;;;;;28.92;20.97;102142.47;5082565;28;1134;-14
2023/01/02 06:37:44;;;;;;;;;;;;;;;27.95;22.00;102138.72;5095536;28;1095;-14
2023/01/02 06:40:10;;;;;;;;;;;;;;;27.02;23.43;102141.41;5094840;28;1042;-14
2023/01/02 06:42:35;;;;;;;;;;;;;;;28.01;22.45;102145.38;5082598;28;1099;-14
2023/01/02 06:45:00;;;;;;;;;;;;;;;28.60;21.67;102150.25;5082251;28;1966;-14
2023/01/02 06:47:26;;;;;;;;;;;;;;;27.86;22.50;102143.22;5095842;28;1105;-14
2023/01/02 06:49:51;;;;;;;;;;;;;;;27.62;22.88;102142.78;5082370;28;1214;-14
2023/01/02 06:52:16;;;;;;;;;;;;;;;27.99;22.93;102140.94;5088124;28;886;-14
2023/01/02 06:54:41;;;;;;;;;;;;;;;28.38;22.23;102143.50;5089209;28;1095;-14
2023/01/02 06:57:07;;;;;;;;;;;;;;;27.28;23.44;102151.50;5088700;28;1141;-14
2023/01/02 06:59:32;;;;;;;;;;;;;;;27.62;23.37;102144.63;5088878;28;1147;-14
2023/01/02 07:01:57;;;;;;;;;;;;;;;28.46;22.42;102144.41;5096067;28;1046;-14
2023/01/02 07:04:22;;;;;;;;;;;;;;;28.50;22.16;102142.22;5081980;28;1959;-14
2023/01/02 07:06:48;;;;;;;;;;;;;;;28.84;21.97;102149.53;5088609;28;1510;-14
2023/01/02 07:09:13;;;;;;;;;;;;;;;27.80;23.12;102141.09;5088399;28;1085;-14
2023/01/02 07:11:38;;;;;;;;;;;;;;;27.52;23.66;102144.69;5083863;28;1026;-14
2023/01/02 07:14:04;;;;;;;;;;;;;;;27.99;22.84;102151.78;5098820;28;1042;-14
2023/01/02 07:16:29;;;;;;;;;;;;;;;28.46;22.40;102151.69;5085945;28;887;-14
2023/01/02 07:18:54;;;;;;;;;;;;;;;27.88;23.21;102149.31;5098696;28;987;-14
2023/01/02 07:21:20;;;;;;;;;;;;;;;27.53;23.68;102156.38;5080346;28;1146;-14
2023/01/02 07:23:45;;;;;;;;;;;;;;;27.16;24.41;102152.72;5090682;28;1142;-15
2023/01/02 07:26:10;;;;;;;;;;;;;;;27.50;24.15;102150.25;5093503;28;1963;-14
2023/01/02 07:28:36;;;;;;;;;;;;;;;28.27;22.83;102152.69;5089769;28;1039;-14
2023/01/02 07:31:02;;;;;;;;;;;;;;;27.74;23.56;102153.41;5098922;28;1193;-14
2023/01/02 07:33:28;;;;;;;;;;;;;;;28.10;23.35;102152.53;5098496;28;1191;-14
2023/01/02 07:35:59;;;;;;;;;;;;;;;28.90;22.10;102158.03;5093634;28;1173;-14
2023/01/02 07:38:25;;;;;;;;;;;;;;;27.91;23.27;102151.69;5078746;28;1020;-14
2023/01/02 07:40:50;;;;;;;;;;;;;;;27.66;23.54;102145.19;5096748;28;1046;-14
2023/01/02 07:43:15;;;;;;;;;;;;;;;27.76;23.61;102148.66;5085877;28;979;-14
2023/01/02 07:45:40;;;;;;;;;;;;;;;27.60;23.54;102150.19;5091825;28;1898;-14
2023/01/02 07:48:06;;;;;;;;;;;;;;;27.62;23.65;102145.50;5090655;28;1011;-14
2023/01/02 07:50:31;;;;;;;;;;;;;;;27.51;24.12;102148.38;5098424;28;1046;-14
2023/01/02 07:52:56;;;;;;;;;;;;;;;27.46;24.27;102154.25;5097331;28;1081;-14
2023/01/02 07:55:22;;;;;;;;;;;;;;;27.43;24.03;102156.38;5097942;28;1066;-14
2023/01/02 07:57:47;;;;;;;;;;;;;;;27.40;24.51;102157.56;5086574;28;1189;-14
2023/01/02 08:00:13;;;;;;;;;;;;;;;27.49;24.32;102155.81;5091646;28;1046;-14
2023/01/02 08:02:38;;;;;;;;;;;;;;;27.63;23.96;102149.88;5089403;28;1526;-14
2023/01/02 08:05:04;;;;;;;;;;;;;;;27.56;23.96;102150.66;5084579;28;1897;-14
2023/01/02 08:07:29;;;;;;;;;;;;;;;27.21;24.58;102148.53;5098070;28;1110;-14
2023/01/02 08:09:54;;;;;;;;;;;;;;;27.48;24.13;102146.84;5098469;28;1014;-14
2023/01/02 08:12:19;;;;;;;;;;;;;;;27.69;24.02;102150.31;5098423;28;1010;-14
2023/01/02 08:14:45;;;;;;;;;;;;;;;27.67;24.20;102160.38;5092510;28;1093;-14
2023/01/02 08:17:10;;;;;;;;;;;;;;;27.69;24.06;102153.88;5077750;28;1015;-14
2023/01/02 08:19:35;;;;;;;;;;;;;;;27.69;24.21;102144.91;5091381;28;1127;-14
2023/01/02 08:22:01;;;;;;;;;;;;;;;27.69;24.33;102145.75;5087544;28;1035;-14
2023/01/02 08:24:26;;;;;;;;;;;;;;;27.73;24.16;102148.97;5079507;28;1911;-14
2023/01/02 08:26:51;;;;;;;;;;;;;;;27.72;24.08;102140.03;5088532;28;1143;-14
2023/01/02 08:29:17;;;;;;;;;;;;;;;27.70;24.55;102142.03;5097299;28;1100;-14
2023/01/02 08:31:42;;;;;;;;;;;;;;;27.77;24.42;102142.28;5097513;28;1058;-14
2023/01/02 08:34:07;;;;;;;;;;;;;;;27.72;24.14;102136.47;5083625;28;1249;-14
2023/01/02 08:36:33;;;;;;;;;;;;;;;27.85;24.39;102138.78;5086775;28;1106;-14
2023/01/02 08:38:58;;;;;;;;;;;;;;;27.58;24.72;102133.25;5076000;28;1032;-14
2023/01/02 08:41:30;;;;;;;;;;;;;;;27.68;24.49;102132.34;5077209;28;1063;-13
2023/01/02 08:43:55;;;;;;;;;;;;;;;27.67;24.51;102123.41;5088888;28;1159;-13
2023/01/02 08:46:20;;;;;;;;;;;;;;;27.83;24.37;102125.44;5076823;28;1894;-13
2023/01/02 08:48:46;;;;;;;;;;;;;;;27.84;24.30;102123.59;5090625;28;1241;-14
2023/01/02 08:51:11;;;;;;;;;;;;;;;27.86;24.22;102117.00;5075868;28;1060;-13
2023/01/02 08:53:37;;;;;;;;;;;;;;;27.92;24.22;102118.25;5094537;28;1030;-13
2023/01/02 08:56:15;;;;;;;;;;;;;;;27.92;24.42;102117.41;5083989;28;1173;-13
2023/01/02 08:58:40;;;;;;;;;;;;;;;27.86;24.23;102097.25;5090314;28;1075;-13
2023/01/02 09:01:06;;;;;;;;;;;;;;;27.89;24.33;102101.47;5090105;28;1107;-13
2023/01/02 09:03:31;;;;;;;;;;;;;;;27.92;24.26;102104.72;5082559;28;1226;-13
2023/01/02 09:05:56;;;;;;;;;;;;;;;27.93;24.49;102097.44;5095793;28;1941;-13
2023/01/02 09:08:21;;;;;;;;;;;;;;;27.96;24.63;102102.56;5095359;28;1139;-13
2023/01/02 09:10:47;;;;;;;;;;;;;;;27.95;24.67;102101.72;5097069;28;1053;-13
2023/01/02 09:13:12;;;;;;;;;;;;;;;27.99;24.65;102094.16;5076739;28;1406;-13
2023/01/02 09:15:37;;;;;;;;;;;;;;;27.96;24.50;102083.63;5075392;28;1201;-14
2023/01/02 09:18:03;;;;;;;;;;;;;;;27.98;24.53;102082.47;5076339;28;1086;-13
2023/01/02 09:20:28;;;;;;;;;;;;;;;27.97;24.50;102078.06;5087857;28;1186;-13
2023/01/02 09:22:53;;;;;;;;;;;;;;;27.97;24.41;102075.38;5090604;28;1266;-14
2023/01/02 09:25:18;;;;;;;;;;;;;;;28.04;24.05;102069.31;5087754;28;1972;-14
2023/01/02 09:27:44;;;;;;;;;;;;;;;27.95;24.59;102068.41;5096103;28;1142;-14
2023/01/02 09:30:09;;;;;;;;;;;;;;;28.02;24.44;102068.63;5084619;28;1017;-13
2023/01/02 09:32:36;;;;;;;;;;;;;;;27.94;24.54;102053.19;5080515;28;1198;-13
2023/01/02 09:35:01;;;;;;;;;;;;;;;27.86;24.67;102062.94;5085113;28;1266;-13
2023/01/02 09:37:27;;;;;;;;;;;;;;;27.84;24.70;102056.00;5076241;28;1054;-13
2023/01/02 09:39:52;;;;;;;;;;;;;;;27.80;24.76;102050.03;5087050;28;1163;-13
2023/01/02 09:42:17;;;;;;;;;;;;;;;27.80;24.93;102047.34;5095830;28;1069;-13
2023/01/02 09:44:51;;;;;;;;;;;;;;;27.77;24.73;102039.53;5085224;28;1897;-14
2023/01/02 09:47:17;;;;;;;;;;;;;;;27.56;25.18;102046.06;5080891;28;1043;-14
2023/01/02 09:49:43;;;;;;;;;;;;;;;27.68;24.90;102040.41;5096493;28;1081;-13
2023/01/02 09:52:11;;;;;;;;;;;;;;;27.68;24.92;102033.19;5093519;28;1157;-13
2023/01/02 09:54:36;;;;;;;;;;;;;;;27.70;25.01;102028.50;5058889;28;1112;-13
2023/01/02 09:57:13;;;;;;;;;;;;;;;27.73;24.97;102032.72;5088622;28;1434;-13
2023/01/02 09:59:59;;;;;;;;;;;;;;;27.79;25.14;102028.56;5088962;28;1080;-13
2023/01/02 10:02:31;;;;;;;;;;;;;;;27.73;24.98;102030.88;5067643;28;1156;-13
2023/01/02 10:05:26;;;;;;;;;;;;;;;27.69;25.20;102026.81;5091061;28;1925;-14
2023/01/02 10:08:01;;;;;;;;;;;;;;;27.56;25.47;102029.03;5060727;28;1754;-13
2023/01/02 10:10:26;;;;;;;;;;;;;;;27.53;25.42;102032.03;5075277;28;987;-13
2023/01/02 10:12:58;;;;;;;;;;;;;;;27.65;25.59;102019.09;5088989;28;976;-14
2023/01/02 10:15:24;;;;;;;;;;;;;;;27.55;25.71;102013.78;5085463;28;1190;-14
2023/01/02 10:17:51;;;;;;;;;;;;;;;27.47;25.31;102015.44;5093137;28;961;-13
2023/01/02 10:20:17;;;;;;;;;;;;;;;27.47;25.58;102006.47;5095420;28;1038;-13
2023/01/02 10:22:42;;;;;;;;;;;;;;;27.56;25.65;102002.00;5091572;28;1195;-14
2023/01/02 10:25:12;;;;;;;;;;;;;;;27.59;25.33;102004.38;5075462;28;1979;-13
2023/01/02 10:27:40;;;;;;;;;;;;;;;27.49;25.54;101999.06;5091364;28;1038;-13
2023/01/02 10:30:19;;;;;;;;;;;;;;;27.48;25.89;101994.66;5083578;28;1053;-13
2023/01/02 10:32:46;;;;;;;;;;;;;;;27.61;25.50;101994.28;5077829;28;1122;-13
2023/01/02 10:35:24;;;;;;;;;;;;;;;27.62;25.70;101996.81;5086494;28;1003;-13
2023/01/02 10:37:49;;;;;;;;;;;;;;;27.51;25.73;101984.38;5088946;28;1286;-14
2023/01/02 10:40:14;;;;;;;;;;;;;;;27.56;25.54;101985.78;5086149;28;1209;-13
2023/01/02 10:42:40;;;;;;;;;;;;;;;28.04;25.19;101975.50;5090359;28;1107;-13
2023/01/02 10:45:05;;;;;;;;;;;;;;;27.93;25.51;101979.31;5093861;28;1964;-13
2023/01/02 10:47:35;;;;;;;;;;;;;;;27.86;25.28;101979.09;5083816;28;1166;-13
2023/01/02 10:50:01;;;;;;;;;;;;;;;27.92;25.37;101974.94;5098931;28;1022;-13
2023/01/02 10:52:28;;;;;;;;;;;;;;;27.90;25.42;101967.97;5084234;28;1471;-14
2023/01/02 10:54:54;;;;;;;;;;;;;;;27.93;25.60;101967.63;5098024;28;1060;-13
2023/01/02 10:57:38;;;;;;;;;;;;;;;27.86;25.38;101954.75;5098897;28;1054;-14
2023/01/02 11:00:04;;;;;;;;;;;;;;;27.89;25.67;101963.56;5085672;28;1029;-13
2023/01/02 11:02:31;;;;;;;;;;;;;;;27.88;25.44;101957.31;5078144;28;1150;-14
2023/01/02 11:05:00;;;;;;;;;;;;;;;27.85;25.34;101953.06;5089989;28;1893;-14
2023/01/02 11:07:26;;;;;;;;;;;;;;;27.91;25.63;101950.75;5090337;28;1015;-13
2023/01/02 11:09:54;;;;;;;;;;;;;;;28.32;25.13;101948.25;5090033;28;1143;-14
2023/01/02 11:12:20;;;;;;;;;;;;;;;27.93;25.37;101944.16;5078946;28;948;-14
2023/01/02 11:14:45;;;;;;;;;;;;;;;27.98;25.35;101940.97;5078470;28;1128;-14
2023/01/02 11:17:13;;;;;;;;;;;;;;;28.02;25.41;101944.22;5091316;28;1119;-13
2023/01/02 11:19:42;;;;;;;;;;;;;;;28.01;25.23;101937.94;5095558;28;978;-13
2023/01/02 11:22:08;;;;;;;;;;;;;;;28.16;25.24;101935.47;5094924;28;1178;-14
2023/01/02 11:24:34;;;;;;;;;;;;;;;28.26;25.09;101929.13;5097226;28;1909;-14
2023/01/02 11:26:59;;;;;;;;;;;;;;;28.11;25.28;101930.56;5097102;28;1014;-13
2023/01/02 11:29:29;;;;;;;;;;;;;;;28.22;25.16;101925.88;5081844;28;1178;-14
2023/01/02 11:31:56;;;;;;;;;;;;;;;28.17;25.17;101920.97;5090219;28;886;-14
2023/01/02 11:34:35;;;;;;;;;;;;;;;28.22;25.23;101918.63;5098008;28;1046;-14
2023/01/02 11:37:01;;;;;;;;;;;;;;;28.32;25.03;101923.06;5083586;28;1201;-14
2023/01/02 11:39:26;;;;;;;;;;;;;;;28.49;24.69;101913.19;5085083;28;1173;-14
2023/01/02 11:45:09;;;;;;;;;;;;;;;28.42;24.64;101910.28;5089914;28;1913;-13
2023/01/02 11:47:36;;;;;;;;;;;;;;;28.53;24.61;101909.13;5085426;28;1127;-14
2023/01/02 11:50:02;;;;;;;;;;;;;;;28.58;24.60;101914.03;5085269;28;1106;-13
2023/01/02 11:52:30;;;;;;;;;;;;;;;28.46;24.49;101908.09;5110468;28;1126;-13
2023/01/02 11:54:58;;;;;;;;;;;;;;;28.56;24.49;101913.38;5093660;28;1035;-14
2023/01/02 11:57:32;;;;;;;;;;;;;;;28.62;24.55;101909.13;5085136;28;1095;-14
2023/01/02 11:59:58;;;;;;;;;;;;;;;28.67;24.61;101901.38;5094530;28;1042;-14
2023/01/02 12:02:23;;;;;;;;;;;;;;;28.90;23.94;101898.03;5077283;28;1027;-13
2023/01/02 12:04:49;;;;;;;;;;;;;;;28.41;24.66;101897.75;5078076;28;1901;-13
2023/01/02 12:07:33;;;;;;;;;;;;;;;28.37;25.08;101899.09;5085764;28;852;-13
2023/01/02 12:10:10;;;;;;;;;;;;;;;28.51;24.69;101896.78;5092301;28;1117;-13
2023/01/02 12:12:54;;;;;;;;;;;;;;;28.74;24.28;101894.28;5077327;28;1090;-14
2023/01/02 12:15:33;;;;;;;;;;;;;;;28.54;24.79;101897.28;5086320;28;1031;-13
2023/01/02 12:18:11;;;;;;;;;;;;;;;28.57;24.64;101891.56;5082633;28;1167;-14
2023/01/02 12:20:42;;;;;;;;;;;;;;;28.52;24.60;101890.34;5097572;28;1050;-14
2023/01/02 12:23:14;;;;;;;;;;;;;;;28.81;24.34;101892.59;5082732;28;1198;-14
2023/01/02 12:25:48;;;;;;;;;;;;;;;28.57;24.51;101891.56;5097150;28;1913;-14
2023/01/02 12:28:17;;;;;;;;;;;;;;;28.58;24.71;101885.13;5097086;28;1039;-13
2023/01/02 12:31:01;;;;;;;;;;;;;;;28.69;24.48;101886.69;5090710;28;1094;-14
2023/01/02 12:33:26;;;;;;;;;;;;;;;28.68;24.54;101887.66;5089686;28;1062;-14
2023/01/02 12:36:00;;;;;;;;;;;;;;;28.61;24.43;101883.94;5090728;28;1476;-13
2023/01/02 12:38:25;;;;;;;;;;;;;;;28.69;24.65;101883.97;5088296;28;1051;-13
2023/01/02 12:40:54;;;;;;;;;;;;;;;29.04;24.08;101883.00;5077102;28;1090;-13
2023/01/02 12:43:19;;;;;;;;;;;;;;;28.66;24.35;101886.16;5076476;28;1054;-13
2023/01/02 12:45:51;;;;;;;;;;;;;;;28.68;24.46;101890.38;5084417;28;1898;-13
2023/01/02 12:48:55;;;;;;;;;;;;;;;29.01;24.18;101892.31;5096753;28;1046;-14
2023/01/02 12:51:23;;;;;;;;;;;;;;;28.76;24.23;101881.41;5054021;28;1079;-13
2023/01/02 12:53:51;;;;;;;;;;;;;;;28.71;24.41;101892.75;5053432;28;1060;-13
2023/01/02 12:56:18;;;;;;;;;;;;;;;28.67;24.35;101894.09;5060806;28;1061;-13